sensor_id;sensor_type;location;lat;lon;timestamp;P1;durP1;ratioP1;P2;durP2;ratioP2
18879;SDS011;9572;52.378;13.404;2022-12-10T00:01:20;33.33;;;13.90;;
18879;SDS011;9572;52.378;13.404;2022-12-10T00:03:48;30.03;;;13.27;;
18879;SDS011;9572;52.378;13.404;2022-12-10T00:06:17;31.40;;;14.30;;
18879;SDS011;9572;52.378;13.404;2022-12-10T00:08:45;34.83;;;14.37;;
18879;SDS011;9572;52.378;13.404;2022-12-10T00:11:13;32.40;;;13.43;;
18879;SDS011;9572;52.378;13.404;2022-12-10T00:13:42;35.73;;;14.30;;
18879;SDS011;9572;52.378;13.404;2022-12-10T00:16:10;30.97;;;13.67;;
18879;SDS011;9572;52.378;13.404;2022-12-10T00:18:37;29.73;;;12.80;;
18879;SDS011;9572;52.378;13.404;2022-12-10T00:21:05;30.23;;;12.43;;
18879;SDS011;9572;52.378;13.404;2022-12-10T00:23:35;32.10;;;12.97;;
18879;SDS011;9572;52.378;13.404;2022-12-10T00:26:02;29.33;;;12.63;;
18879;SDS011;9572;52.378;13.404;2022-12-10T00:28:30;32.57;;;13.83;;
18879;SDS011;9572;52.378;13.404;2022-12-10T00:31:01;27.87;;;11.40;;
18879;SDS011;9572;52.378;13.404;2022-12-10T00:33:29;29.47;;;13.23;;
18879;SDS011;9572;52.378;13.404;2022-12-10T00:35:56;30.27;;;12.90;;
18879;SDS011;9572;52.378;13.404;2022-12-10T00:38:27;28.43;;;12.30;;
18879;SDS011;9572;52.378;13.404;2022-12-10T00:40:55;26.37;;;11.90;;
18879;SDS011;9572;52.378;13.404;2022-12-10T00:43:22;27.97;;;12.97;;
18879;SDS011;9572;52.378;13.404;2022-12-10T00:45:49;24.17;;;12.33;;
18879;SDS011;9572;52.378;13.404;2022-12-10T00:48:16;30.37;;;12.50;;
18879;SDS011;9572;52.378;13.404;2022-12-10T00:50:43;28.53;;;13.67;;
18879;SDS011;9572;52.378;13.404;2022-12-10T00:53:10;34.73;;;13.00;;
18879;SDS011;9572;52.378;13.404;2022-12-10T00:55:37;28.07;;;12.63;;
18879;SDS011;9572;52.378;13.404;2022-12-10T00:58:05;31.10;;;13.23;;
18879;SDS011;9572;52.378;13.404;2022-12-10T01:00:32;27.67;;;12.10;;
18879;SDS011;9572;52.378;13.404;2022-12-10T01:02:59;27.37;;;12.40;;
18879;SDS011;9572;52.378;13.404;2022-12-10T01:05:25;28.37;;;12.57;;
18879;SDS011;9572;52.378;13.404;2022-12-10T01:07:52;24.23;;;11.63;;
18879;SDS011;9572;52.378;13.404;2022-12-10T01:10:19;28.23;;;12.50;;
18879;SDS011;9572;52.378;13.404;2022-12-10T01:12:46;28.17;;;12.23;;
18879;SDS011;9572;52.378;13.404;2022-12-10T01:15:14;24.20;;;12.33;;
18879;SDS011;9572;52.378;13.404;2022-12-10T01:17:41;28.67;;;12.67;;
18879;SDS011;9572;52.378;13.404;2022-12-10T01:20:09;30.70;;;12.50;;
18879;SDS011;9572;52.378;13.404;2022-12-10T01:22:37;33.53;;;13.47;;
18879;SDS011;9572;52.378;13.404;2022-12-10T01:25:04;32.90;;;13.40;;
18879;SDS011;9572;52.378;13.404;2022-12-10T01:27:32;29.90;;;12.80;;
18879;SDS011;9572;52.378;13.404;2022-12-10T01:29:59;29.20;;;13.13;;
18879;SDS011;9572;52.378;13.404;2022-12-10T01:32:27;28.87;;;11.93;;
18879;SDS011;9572;52.378;13.404;2022-12-10T01:34:54;28.50;;;12.60;;
18879;SDS011;9572;52.378;13.404;2022-12-10T01:37:21;33.43;;;13.33;;
18879;SDS011;9572;52.378;13.404;2022-12-10T01:39:48;30.13;;;13.07;;
18879;SDS011;9572;52.378;13.404;2022-12-10T01:42:14;27.90;;;12.27;;
18879;SDS011;9572;52.378;13.404;2022-12-10T01:45:02;28.43;;;12.93;;
18879;SDS011;9572;52.378;13.404;2022-12-10T01:47:34;30.73;;;12.30;;
18879;SDS011;9572;52.378;13.404;2022-12-10T01:50:01;29.80;;;13.10;;
18879;SDS011;9572;52.378;13.404;2022-12-10T01:52:28;27.13;;;11.57;;
18879;SDS011;9572;52.378;13.404;2022-12-10T01:54:55;31.40;;;12.33;;
18879;SDS011;9572;52.378;13.404;2022-12-10T01:57:23;27.73;;;12.10;;
18879;SDS011;9572;52.378;13.404;2022-12-10T01:59:52;27.97;;;12.60;;
18879;SDS011;9572;52.378;13.404;2022-12-10T02:02:26;32.47;;;13.33;;
18879;SDS011;9572;52.378;13.404;2022-12-10T02:05:04;31.30;;;12.30;;
18879;SDS011;9572;52.378;13.404;2022-12-10T02:07:39;29.43;;;12.60;;
18879;SDS011;9572;52.378;13.404;2022-12-10T02:10:19;30.00;;;13.10;;
18879;SDS011;9572;52.378;13.404;2022-12-10T02:12:52;27.30;;;12.23;;
18879;SDS011;9572;52.378;13.404;2022-12-10T02:15:26;31.93;;;12.27;;
18879;SDS011;9572;52.378;13.404;2022-12-10T02:17:57;31.53;;;13.53;;
18879;SDS011;9572;52.378;13.404;2022-12-10T02:20:31;27.80;;;12.53;;
18879;SDS011;9572;52.378;13.404;2022-12-10T02:23:03;28.07;;;12.37;;
18879;SDS011;9572;52.378;13.404;2022-12-10T02:25:34;29.07;;;12.50;;
18879;SDS011;9572;52.378;13.404;2022-12-10T02:28:08;29.77;;;12.83;;
18879;SDS011;9572;52.378;13.404;2022-12-10T02:30:41;29.80;;;12.57;;
18879;SDS011;9572;52.378;13.404;2022-12-10T02:33:09;30.63;;;13.00;;
18879;SDS011;9572;52.378;13.404;2022-12-10T02:35:39;28.23;;;12.23;;
18879;SDS011;9572;52.378;13.404;2022-12-10T02:38:09;31.83;;;13.57;;
18879;SDS011;9572;52.378;13.404;2022-12-10T02:40:39;29.90;;;13.33;;
18879;SDS011;9572;52.378;13.404;2022-12-10T02:43:11;25.60;;;11.73;;
18879;SDS011;9572;52.378;13.404;2022-12-10T02:45:39;27.33;;;12.33;;
18879;SDS011;9572;52.378;13.404;2022-12-10T02:48:10;24.63;;;11.20;;
18879;SDS011;9572;52.378;13.404;2022-12-10T02:50:38;23.17;;;11.63;;
18879;SDS011;9572;52.378;13.404;2022-12-10T02:53:05;27.70;;;11.93;;
18879;SDS011;9572;52.378;13.404;2022-12-10T02:55:36;30.17;;;12.67;;
18879;SDS011;9572;52.378;13.404;2022-12-10T02:58:15;25.67;;;11.60;;
18879;SDS011;9572;52.378;13.404;2022-12-10T03:00:53;29.07;;;12.23;;
18879;SDS011;9572;52.378;13.404;2022-12-10T03:03:31;22.80;;;11.87;;
18879;SDS011;9572;52.378;13.404;2022-12-10T03:06:05;22.80;;;11.33;;
18879;SDS011;9572;52.378;13.404;2022-12-10T03:08:39;24.73;;;11.90;;
18879;SDS011;9572;52.378;13.404;2022-12-10T03:11:11;28.13;;;12.10;;
18879;SDS011;9572;52.378;13.404;2022-12-10T03:13:41;26.83;;;12.23;;
18879;SDS011;9572;52.378;13.404;2022-12-10T03:16:18;27.43;;;12.23;;
18879;SDS011;9572;52.378;13.404;2022-12-10T03:18:46;25.83;;;12.13;;
18879;SDS011;9572;52.378;13.404;2022-12-10T03:21:16;27.03;;;12.23;;
18879;SDS011;9572;52.378;13.404;2022-12-10T03:23:46;23.40;;;11.77;;
18879;SDS011;9572;52.378;13.404;2022-12-10T03:26:14;23.90;;;11.93;;
18879;SDS011;9572;52.378;13.404;2022-12-10T03:28:43;25.70;;;11.30;;
18879;SDS011;9572;52.378;13.404;2022-12-10T03:31:14;24.37;;;11.77;;
18879;SDS011;9572;52.378;13.404;2022-12-10T03:33:44;24.27;;;12.47;;
18879;SDS011;9572;52.378;13.404;2022-12-10T03:36:13;23.40;;;11.10;;
18879;SDS011;9572;52.378;13.404;2022-12-10T03:38:42;25.60;;;11.97;;
18879;SDS011;9572;52.378;13.404;2022-12-10T03:41:09;23.77;;;11.33;;
18879;SDS011;9572;52.378;13.404;2022-12-10T03:43:48;24.73;;;11.80;;
18879;SDS011;9572;52.378;13.404;2022-12-10T03:46:16;23.57;;;11.63;;
18879;SDS011;9572;52.378;13.404;2022-12-10T03:48:45;24.43;;;11.93;;
18879;SDS011;9572;52.378;13.404;2022-12-10T03:51:12;26.30;;;12.37;;
18879;SDS011;9572;52.378;13.404;2022-12-10T03:53:40;27.43;;;12.27;;
18879;SDS011;9572;52.378;13.404;2022-12-10T03:56:07;24.60;;;11.90;;
18879;SDS011;9572;52.378;13.404;2022-12-10T03:58:34;25.23;;;11.87;;
18879;SDS011;9572;52.378;13.404;2022-12-10T04:01:01;23.90;;;12.30;;
18879;SDS011;9572;52.378;13.404;2022-12-10T04:03:27;24.47;;;12.00;;
18879;SDS011;9572;52.378;13.404;2022-12-10T04:06:01;23.83;;;11.70;;
18879;SDS011;9572;52.378;13.404;2022-12-10T04:08:28;24.77;;;12.53;;
18879;SDS011;9572;52.378;13.404;2022-12-10T04:11:00;28.20;;;13.60;;
18879;SDS011;9572;52.378;13.404;2022-12-10T04:13:30;27.30;;;12.33;;
18879;SDS011;9572;52.378;13.404;2022-12-10T04:16:15;25.60;;;12.37;;
18879;SDS011;9572;52.378;13.404;2022-12-10T04:18:54;21.87;;;10.80;;
18879;SDS011;9572;52.378;13.404;2022-12-10T04:21:24;24.20;;;11.73;;
18879;SDS011;9572;52.378;13.404;2022-12-10T04:24:10;28.63;;;12.73;;
18879;SDS011;9572;52.378;13.404;2022-12-10T04:26:56;22.93;;;11.53;;
18879;SDS011;9572;52.378;13.404;2022-12-10T04:29:25;26.80;;;12.73;;
18879;SDS011;9572;52.378;13.404;2022-12-10T04:31:53;27.90;;;12.37;;
18879;SDS011;9572;52.378;13.404;2022-12-10T04:34:21;28.43;;;13.73;;
18879;SDS011;9572;52.378;13.404;2022-12-10T04:36:50;26.73;;;12.83;;
18879;SDS011;9572;52.378;13.404;2022-12-10T04:39:18;27.10;;;13.30;;
18879;SDS011;9572;52.378;13.404;2022-12-10T04:41:46;31.13;;;12.57;;
18879;SDS011;9572;52.378;13.404;2022-12-10T04:44:14;30.60;;;14.00;;
18879;SDS011;9572;52.378;13.404;2022-12-10T04:46:41;38.57;;;15.60;;
18879;SDS011;9572;52.378;13.404;2022-12-10T04:49:08;34.27;;;14.00;;
18879;SDS011;9572;52.378;13.404;2022-12-10T04:51:35;30.23;;;13.47;;
18879;SDS011;9572;52.378;13.404;2022-12-10T04:54:04;23.17;;;11.77;;
18879;SDS011;9572;52.378;13.404;2022-12-10T04:56:32;26.57;;;13.50;;
18879;SDS011;9572;52.378;13.404;2022-12-10T04:58:59;22.83;;;11.63;;
18879;SDS011;9572;52.378;13.404;2022-12-10T05:01:27;27.83;;;13.57;;
18879;SDS011;9572;52.378;13.404;2022-12-10T05:03:54;26.13;;;11.93;;
18879;SDS011;9572;52.378;13.404;2022-12-10T05:06:24;27.13;;;13.10;;
18879;SDS011;9572;52.378;13.404;2022-12-10T05:08:51;25.20;;;12.43;;
18879;SDS011;9572;52.378;13.404;2022-12-10T05:11:21;25.73;;;12.80;;
18879;SDS011;9572;52.378;13.404;2022-12-10T05:13:48;25.90;;;12.80;;
18879;SDS011;9572;52.378;13.404;2022-12-10T05:16:16;28.30;;;13.33;;
18879;SDS011;9572;52.378;13.404;2022-12-10T05:18:44;28.70;;;12.90;;
18879;SDS011;9572;52.378;13.404;2022-12-10T05:21:12;23.73;;;11.90;;
18879;SDS011;9572;52.378;13.404;2022-12-10T05:23:41;28.63;;;12.40;;
18879;SDS011;9572;52.378;13.404;2022-12-10T05:26:09;26.23;;;12.93;;
18879;SDS011;9572;52.378;13.404;2022-12-10T05:28:39;28.57;;;13.53;;
18879;SDS011;9572;52.378;13.404;2022-12-10T05:31:11;28.80;;;13.30;;
18879;SDS011;9572;52.378;13.404;2022-12-10T05:33:39;29.67;;;13.87;;
18879;SDS011;9572;52.378;13.404;2022-12-10T05:36:07;27.43;;;12.80;;
18879;SDS011;9572;52.378;13.404;2022-12-10T05:38:36;27.80;;;13.47;;
18879;SDS011;9572;52.378;13.404;2022-12-10T05:41:03;32.50;;;14.63;;
18879;SDS011;9572;52.378;13.404;2022-12-10T05:43:31;27.00;;;13.33;;
18879;SDS011;9572;52.378;13.404;2022-12-10T05:46:00;27.17;;;12.93;;
18879;SDS011;9572;52.378;13.404;2022-12-10T05:48:28;31.20;;;14.23;;
18879;SDS011;9572;52.378;13.404;2022-12-10T05:50:56;25.60;;;12.90;;
18879;SDS011;9572;52.378;13.404;2022-12-10T05:53:23;28.23;;;13.03;;
18879;SDS011;9572;52.378;13.404;2022-12-10T05:55:58;26.20;;;13.13;;
18879;SDS011;9572;52.378;13.404;2022-12-10T05:58:26;32.60;;;14.67;;
18879;SDS011;9572;52.378;13.404;2022-12-10T06:00:54;24.47;;;12.57;;
18879;SDS011;9572;52.378;13.404;2022-12-10T06:03:22;27.00;;;13.27;;
18879;SDS011;9572;52.378;13.404;2022-12-10T06:05:50;26.30;;;13.57;;
18879;SDS011;9572;52.378;13.404;2022-12-10T06:08:17;26.07;;;12.17;;
18879;SDS011;9572;52.378;13.404;2022-12-10T06:10:44;27.47;;;13.60;;
18879;SDS011;9572;52.378;13.404;2022-12-10T06:13:11;27.40;;;12.87;;
18879;SDS011;9572;52.378;13.404;2022-12-10T06:15:38;28.10;;;13.87;;
18879;SDS011;9572;52.378;13.404;2022-12-10T06:18:06;29.80;;;13.70;;
18879;SDS011;9572;52.378;13.404;2022-12-10T06:20:36;31.67;;;14.40;;
18879;SDS011;9572;52.378;13.404;2022-12-10T06:23:04;29.67;;;13.43;;
18879;SDS011;9572;52.378;13.404;2022-12-10T06:25:31;27.33;;;12.87;;
18879;SDS011;9572;52.378;13.404;2022-12-10T06:27:58;27.90;;;13.00;;
18879;SDS011;9572;52.378;13.404;2022-12-10T06:30:25;29.20;;;14.23;;
18879;SDS011;9572;52.378;13.404;2022-12-10T06:32:52;27.63;;;14.10;;
18879;SDS011;9572;52.378;13.404;2022-12-10T06:35:19;30.07;;;14.37;;
18879;SDS011;9572;52.378;13.404;2022-12-10T06:37:48;26.37;;;12.73;;
18879;SDS011;9572;52.378;13.404;2022-12-10T06:40:15;25.80;;;13.37;;
18879;SDS011;9572;52.378;13.404;2022-12-10T06:42:42;25.57;;;12.30;;
18879;SDS011;9572;52.378;13.404;2022-12-10T06:45:09;29.57;;;13.40;;
18879;SDS011;9572;52.378;13.404;2022-12-10T06:47:36;26.83;;;13.17;;
18879;SDS011;9572;52.378;13.404;2022-12-10T06:50:03;25.97;;;12.43;;
18879;SDS011;9572;52.378;13.404;2022-12-10T06:52:31;29.83;;;13.77;;
18879;SDS011;9572;52.378;13.404;2022-12-10T06:54:59;29.03;;;13.60;;
18879;SDS011;9572;52.378;13.404;2022-12-10T06:57:26;25.57;;;12.60;;
18879;SDS011;9572;52.378;13.404;2022-12-10T06:59:53;26.67;;;12.87;;
18879;SDS011;9572;52.378;13.404;2022-12-10T07:02:19;28.37;;;13.50;;
18879;SDS011;9572;52.378;13.404;2022-12-10T07:04:46;26.63;;;13.27;;
18879;SDS011;9572;52.378;13.404;2022-12-10T07:07:13;26.80;;;13.23;;
18879;SDS011;9572;52.378;13.404;2022-12-10T07:09:40;33.03;;;14.03;;
18879;SDS011;9572;52.378;13.404;2022-12-10T07:12:08;26.70;;;12.87;;
18879;SDS011;9572;52.378;13.404;2022-12-10T07:14:35;24.63;;;13.03;;
18879;SDS011;9572;52.378;13.404;2022-12-10T07:17:03;21.97;;;12.10;;
18879;SDS011;9572;52.378;13.404;2022-12-10T07:19:30;29.00;;;13.63;;
18879;SDS011;9572;52.378;13.404;2022-12-10T07:21:57;23.47;;;12.80;;
18879;SDS011;9572;52.378;13.404;2022-12-10T07:24:24;26.53;;;12.50;;
18879;SDS011;9572;52.378;13.404;2022-12-10T07:26:54;24.13;;;12.40;;
18879;SDS011;9572;52.378;13.404;2022-12-10T07:29:22;26.23;;;12.23;;
18879;SDS011;9572;52.378;13.404;2022-12-10T07:31:51;24.50;;;12.87;;
18879;SDS011;9572;52.378;13.404;2022-12-10T07:34:19;29.00;;;13.23;;
18879;SDS011;9572;52.378;13.404;2022-12-10T07:36:46;27.53;;;12.43;;
18879;SDS011;9572;52.378;13.404;2022-12-10T07:39:13;23.50;;;11.73;;
18879;SDS011;9572;52.378;13.404;2022-12-10T07:41:42;25.83;;;12.37;;
18879;SDS011;9572;52.378;13.404;2022-12-10T07:44:11;23.23;;;12.37;;
18879;SDS011;9572;52.378;13.404;2022-12-10T07:46:40;27.80;;;12.57;;
18879;SDS011;9572;52.378;13.404;2022-12-10T07:49:07;27.17;;;12.77;;
18879;SDS011;9572;52.378;13.404;2022-12-10T07:51:34;24.87;;;12.30;;
18879;SDS011;9572;52.378;13.404;2022-12-10T07:54:01;25.00;;;13.10;;
18879;SDS011;9572;52.378;13.404;2022-12-10T07:56:28;25.20;;;12.53;;
18879;SDS011;9572;52.378;13.404;2022-12-10T07:58:55;25.20;;;12.47;;
18879;SDS011;9572;52.378;13.404;2022-12-10T08:01:23;23.33;;;12.07;;
18879;SDS011;9572;52.378;13.404;2022-12-10T08:03:53;27.17;;;12.47;;
18879;SDS011;9572;52.378;13.404;2022-12-10T08:06:22;25.47;;;12.23;;
18879;SDS011;9572;52.378;13.404;2022-12-10T08:08:51;22.87;;;12.20;;
18879;SDS011;9572;52.378;13.404;2022-12-10T08:11:18;22.50;;;12.50;;
18879;SDS011;9572;52.378;13.404;2022-12-10T08:13:47;22.40;;;12.23;;
18879;SDS011;9572;52.378;13.404;2022-12-10T08:16:14;21.70;;;11.77;;
18879;SDS011;9572;52.378;13.404;2022-12-10T08:18:43;23.63;;;12.00;;
18879;SDS011;9572;52.378;13.404;2022-12-10T08:21:13;26.55;;;15.88;;
18879;SDS011;9572;52.378;13.404;2022-12-10T08:23:41;23.60;;;13.20;;
18879;SDS011;9572;52.378;13.404;2022-12-10T08:26:09;23.30;;;12.63;;
18879;SDS011;9572;52.378;13.404;2022-12-10T08:28:37;24.77;;;11.60;;
18879;SDS011;9572;52.378;13.404;2022-12-10T08:31:05;21.90;;;12.37;;
18879;SDS011;9572;52.378;13.404;2022-12-10T08:33:34;22.50;;;12.00;;
18879;SDS011;9572;52.378;13.404;2022-12-10T08:36:02;23.90;;;12.70;;
18879;SDS011;9572;52.378;13.404;2022-12-10T08:38:31;26.87;;;13.57;;
18879;SDS011;9572;52.378;13.404;2022-12-10T08:40:58;20.87;;;11.43;;
18879;SDS011;9572;52.378;13.404;2022-12-10T08:43:25;21.27;;;12.20;;
18879;SDS011;9572;52.378;13.404;2022-12-10T08:45:52;21.97;;;11.97;;
18879;SDS011;9572;52.378;13.404;2022-12-10T08:48:26;21.50;;;12.37;;
18879;SDS011;9572;52.378;13.404;2022-12-10T08:50:53;23.47;;;13.13;;
18879;SDS011;9572;52.378;13.404;2022-12-10T08:53:20;24.70;;;13.43;;
18879;SDS011;9572;52.378;13.404;2022-12-10T08:55:50;23.90;;;13.20;;
18879;SDS011;9572;52.378;13.404;2022-12-10T08:58:17;21.03;;;11.57;;
18879;SDS011;9572;52.378;13.404;2022-12-10T09:00:44;19.33;;;10.77;;
18879;SDS011;9572;52.378;13.404;2022-12-10T09:03:11;25.80;;;14.47;;
18879;SDS011;9572;52.378;13.404;2022-12-10T09:05:38;20.80;;;11.70;;
18879;SDS011;9572;52.378;13.404;2022-12-10T09:08:05;23.07;;;12.50;;
18879;SDS011;9572;52.378;13.404;2022-12-10T09:10:32;19.33;;;11.00;;
18879;SDS011;9572;52.378;13.404;2022-12-10T09:13:02;23.00;;;12.43;;
18879;SDS011;9572;52.378;13.404;2022-12-10T09:15:29;22.27;;;11.83;;
18879;SDS011;9572;52.378;13.404;2022-12-10T09:17:56;25.67;;;12.30;;
18879;SDS011;9572;52.378;13.404;2022-12-10T09:20:23;21.50;;;11.97;;
18879;SDS011;9572;52.378;13.404;2022-12-10T09:22:50;19.63;;;11.53;;
18879;SDS011;9572;52.378;13.404;2022-12-10T09:25:17;21.20;;;11.50;;
18879;SDS011;9572;52.378;13.404;2022-12-10T09:27:46;22.60;;;12.53;;
18879;SDS011;9572;52.378;13.404;2022-12-10T09:30:15;25.57;;;12.53;;
18879;SDS011;9572;52.378;13.404;2022-12-10T09:32:42;25.20;;;12.63;;
18879;SDS011;9572;52.378;13.404;2022-12-10T09:35:09;25.67;;;13.47;;
18879;SDS011;9572;52.378;13.404;2022-12-10T09:37:36;23.60;;;12.77;;
18879;SDS011;9572;52.378;13.404;2022-12-10T09:40:03;21.43;;;11.67;;
18879;SDS011;9572;52.378;13.404;2022-12-10T09:42:33;23.47;;;12.33;;
18879;SDS011;9572;52.378;13.404;2022-12-10T09:45:12;22.87;;;12.10;;
18879;SDS011;9572;52.378;13.404;2022-12-10T09:47:46;20.57;;;11.90;;
18879;SDS011;9572;52.378;13.404;2022-12-10T09:50:23;17.10;;;10.20;;
18879;SDS011;9572;52.378;13.404;2022-12-10T09:52:56;19.27;;;11.10;;
18879;SDS011;9572;52.378;13.404;2022-12-10T09:55:29;18.43;;;11.30;;
18879;SDS011;9572;52.378;13.404;2022-12-10T09:58:01;17.73;;;10.60;;
18879;SDS011;9572;52.378;13.404;2022-12-10T10:00:32;22.47;;;12.83;;
18879;SDS011;9572;52.378;13.404;2022-12-10T10:03:02;20.57;;;12.23;;
18879;SDS011;9572;52.378;13.404;2022-12-10T10:05:29;19.77;;;11.87;;
18879;SDS011;9572;52.378;13.404;2022-12-10T10:07:59;22.83;;;11.70;;
18879;SDS011;9572;52.378;13.404;2022-12-10T10:10:28;26.37;;;12.17;;
18879;SDS011;9572;52.378;13.404;2022-12-10T10:13:10;23.73;;;12.30;;
18879;SDS011;9572;52.378;13.404;2022-12-10T10:15:44;23.23;;;13.43;;
18879;SDS011;9572;52.378;13.404;2022-12-10T10:18:13;22.77;;;13.53;;
18879;SDS011;9572;52.378;13.404;2022-12-10T10:20:47;23.90;;;12.67;;
18879;SDS011;9572;52.378;13.404;2022-12-10T10:23:15;22.40;;;12.43;;
18879;SDS011;9572;52.378;13.404;2022-12-10T10:25:42;21.80;;;12.20;;
18879;SDS011;9572;52.378;13.404;2022-12-10T10:28:11;24.37;;;13.03;;
18879;SDS011;9572;52.378;13.404;2022-12-10T10:30:40;25.07;;;13.10;;
18879;SDS011;9572;52.378;13.404;2022-12-10T10:33:11;26.10;;;13.27;;
18879;SDS011;9572;52.378;13.404;2022-12-10T10:35:44;22.37;;;12.53;;
18879;SDS011;9572;52.378;13.404;2022-12-10T10:38:15;24.77;;;13.80;;
18879;SDS011;9572;52.378;13.404;2022-12-10T10:40:46;25.90;;;12.67;;
18879;SDS011;9572;52.378;13.404;2022-12-10T10:43:18;22.63;;;12.07;;
18879;SDS011;9572;52.378;13.404;2022-12-10T10:45:47;22.03;;;11.67;;
18879;SDS011;9572;52.378;13.404;2022-12-10T10:48:18;21.23;;;12.07;;
18879;SDS011;9572;52.378;13.404;2022-12-10T10:50:47;22.77;;;12.10;;
18879;SDS011;9572;52.378;13.404;2022-12-10T10:53:23;19.93;;;11.53;;
18879;SDS011;9572;52.378;13.404;2022-12-10T10:55:52;25.30;;;12.40;;
18879;SDS011;9572;52.378;13.404;2022-12-10T10:58:22;22.67;;;11.50;;
18879;SDS011;9572;52.378;13.404;2022-12-10T11:00:53;21.40;;;12.20;;
18879;SDS011;9572;52.378;13.404;2022-12-10T11:03:24;23.40;;;12.43;;
18879;SDS011;9572;52.378;13.404;2022-12-10T11:05:51;23.03;;;11.93;;
18879;SDS011;9572;52.378;13.404;2022-12-10T11:08:20;21.13;;;11.63;;
18879;SDS011;9572;52.378;13.404;2022-12-10T11:10:50;23.67;;;12.50;;
18879;SDS011;9572;52.378;13.404;2022-12-10T11:13:23;22.53;;;11.53;;
18879;SDS011;9572;52.378;13.404;2022-12-10T11:15:54;22.97;;;12.47;;
18879;SDS011;9572;52.378;13.404;2022-12-10T11:18:27;23.33;;;12.60;;
18879;SDS011;9572;52.378;13.404;2022-12-10T11:20:58;23.43;;;12.07;;
18879;SDS011;9572;52.378;13.404;2022-12-10T11:23:27;24.17;;;12.70;;
18879;SDS011;9572;52.378;13.404;2022-12-10T11:25:57;22.43;;;12.33;;
18879;SDS011;9572;52.378;13.404;2022-12-10T11:28:34;21.33;;;11.70;;
18879;SDS011;9572;52.378;13.404;2022-12-10T11:31:21;22.20;;;12.80;;
18879;SDS011;9572;52.378;13.404;2022-12-10T11:34:01;21.43;;;12.37;;
18879;SDS011;9572;52.378;13.404;2022-12-10T11:36:35;21.97;;;12.70;;
18879;SDS011;9572;52.378;13.404;2022-12-10T11:39:10;24.23;;;12.83;;
18879;SDS011;9572;52.378;13.404;2022-12-10T11:41:50;21.93;;;11.97;;
18879;SDS011;9572;52.378;13.404;2022-12-10T11:44:29;23.70;;;13.00;;
18879;SDS011;9572;52.378;13.404;2022-12-10T11:47:10;26.87;;;14.67;;
18879;SDS011;9572;52.378;13.404;2022-12-10T11:49:59;25.00;;;13.33;;
18879;SDS011;9572;52.378;13.404;2022-12-10T11:52:35;22.70;;;12.43;;
18879;SDS011;9572;52.378;13.404;2022-12-10T11:55:12;23.00;;;12.33;;
18879;SDS011;9572;52.378;13.404;2022-12-10T11:57:48;23.60;;;12.73;;
18879;SDS011;9572;52.378;13.404;2022-12-10T12:00:20;25.50;;;13.33;;
18879;SDS011;9572;52.378;13.404;2022-12-10T12:02:52;22.50;;;12.70;;
18879;SDS011;9572;52.378;13.404;2022-12-10T12:05:39;27.63;;;14.07;;
18879;SDS011;9572;52.378;13.404;2022-12-10T12:08:23;23.90;;;13.07;;
18879;SDS011;9572;52.378;13.404;2022-12-10T12:11:00;21.37;;;12.17;;
18879;SDS011;9572;52.378;13.404;2022-12-10T12:13:47;24.07;;;13.47;;
18879;SDS011;9572;52.378;13.404;2022-12-10T12:16:23;26.37;;;13.70;;
18879;SDS011;9572;52.378;13.404;2022-12-10T12:18:54;22.73;;;12.20;;
18879;SDS011;9572;52.378;13.404;2022-12-10T12:21:26;23.53;;;13.13;;
18879;SDS011;9572;52.378;13.404;2022-12-10T12:23:54;26.40;;;13.40;;
18879;SDS011;9572;52.378;13.404;2022-12-10T12:26:27;26.07;;;13.50;;
18879;SDS011;9572;52.378;13.404;2022-12-10T12:29:20;25.00;;;12.80;;
18879;SDS011;9572;52.378;13.404;2022-12-10T12:31:54;25.03;;;13.20;;
18879;SDS011;9572;52.378;13.404;2022-12-10T12:34:27;27.03;;;13.00;;
18879;SDS011;9572;52.378;13.404;2022-12-10T12:37:04;27.73;;;14.23;;
18879;SDS011;9572;52.378;13.404;2022-12-10T12:39:35;26.57;;;13.23;;
18879;SDS011;9572;52.378;13.404;2022-12-10T12:42:12;26.27;;;13.53;;
18879;SDS011;9572;52.378;13.404;2022-12-10T12:44:49;27.27;;;14.27;;
18879;SDS011;9572;52.378;13.404;2022-12-10T12:47:29;26.90;;;13.73;;
18879;SDS011;9572;52.378;13.404;2022-12-10T12:50:05;26.50;;;14.23;;
18879;SDS011;9572;52.378;13.404;2022-12-10T12:52:48;25.93;;;13.60;;
18879;SDS011;9572;52.378;13.404;2022-12-10T12:55:20;27.47;;;14.10;;
18879;SDS011;9572;52.378;13.404;2022-12-10T12:57:53;29.20;;;14.10;;
18879;SDS011;9572;52.378;13.404;2022-12-10T13:00:28;26.80;;;14.43;;
18879;SDS011;9572;52.378;13.404;2022-12-10T13:03:05;28.03;;;15.47;;
18879;SDS011;9572;52.378;13.404;2022-12-10T13:05:44;26.27;;;14.57;;
18879;SDS011;9572;52.378;13.404;2022-12-10T13:08:22;26.47;;;14.33;;
18879;SDS011;9572;52.378;13.404;2022-12-10T13:10:52;30.47;;;15.17;;
18879;SDS011;9572;52.378;13.404;2022-12-10T13:13:23;30.23;;;14.53;;
18879;SDS011;9572;52.378;13.404;2022-12-10T13:15:53;28.97;;;15.10;;
18879;SDS011;9572;52.378;13.404;2022-12-10T13:18:22;28.07;;;14.20;;
18879;SDS011;9572;52.378;13.404;2022-12-10T13:21:25;28.17;;;14.53;;
18879;SDS011;9572;52.378;13.404;2022-12-10T13:24:05;29.93;;;15.07;;
18879;SDS011;9572;52.378;13.404;2022-12-10T13:26:40;32.77;;;15.33;;
18879;SDS011;9572;52.378;13.404;2022-12-10T13:29:27;28.67;;;14.67;;
18879;SDS011;9572;52.378;13.404;2022-12-10T13:31:55;30.20;;;15.60;;
18879;SDS011;9572;52.378;13.404;2022-12-10T13:34:31;26.77;;;14.70;;
18879;SDS011;9572;52.378;13.404;2022-12-10T13:37:05;31.20;;;15.43;;
18879;SDS011;9572;52.378;13.404;2022-12-10T13:40:00;28.73;;;14.73;;
18879;SDS011;9572;52.378;13.404;2022-12-10T13:42:39;29.77;;;15.00;;
18879;SDS011;9572;52.378;13.404;2022-12-10T13:45:30;32.47;;;16.30;;
18879;SDS011;9572;52.378;13.404;2022-12-10T13:48:23;27.93;;;14.57;;
18879;SDS011;9572;52.378;13.404;2022-12-10T13:50:59;30.57;;;14.83;;
18879;SDS011;9572;52.378;13.404;2022-12-10T13:53:49;28.07;;;14.57;;
18879;SDS011;9572;52.378;13.404;2022-12-10T13:56:30;28.33;;;14.23;;
18879;SDS011;9572;52.378;13.404;2022-12-10T13:59:08;26.93;;;13.93;;
18879;SDS011;9572;52.378;13.404;2022-12-10T14:01:48;25.13;;;13.90;;
18879;SDS011;9572;52.378;13.404;2022-12-10T14:04:24;24.40;;;13.47;;
18879;SDS011;9572;52.378;13.404;2022-12-10T14:07:14;24.93;;;13.53;;
18879;SDS011;9572;52.378;13.404;2022-12-10T14:09:45;25.17;;;13.47;;
18879;SDS011;9572;52.378;13.404;2022-12-10T14:12:18;27.37;;;13.70;;
18879;SDS011;9572;52.378;13.404;2022-12-10T14:14:50;25.07;;;13.80;;
18879;SDS011;9572;52.378;13.404;2022-12-10T14:17:22;21.93;;;12.87;;
18879;SDS011;9572;52.378;13.404;2022-12-10T14:19:56;23.93;;;12.37;;
18879;SDS011;9572;52.378;13.404;2022-12-10T14:22:28;23.97;;;13.20;;
18879;SDS011;9572;52.378;13.404;2022-12-10T14:24:58;24.97;;;13.03;;
18879;SDS011;9572;52.378;13.404;2022-12-10T14:27:27;22.60;;;12.37;;
18879;SDS011;9572;52.378;13.404;2022-12-10T14:29:58;26.47;;;13.90;;
18879;SDS011;9572;52.378;13.404;2022-12-10T14:32:31;28.10;;;15.30;;
18879;SDS011;9572;52.378;13.404;2022-12-10T14:35:00;27.40;;;14.07;;
18879;SDS011;9572;52.378;13.404;2022-12-10T14:37:30;27.97;;;14.03;;
18879;SDS011;9572;52.378;13.404;2022-12-10T14:40:00;24.13;;;12.70;;
18879;SDS011;9572;52.378;13.404;2022-12-10T14:42:28;22.93;;;12.93;;